Time;durP1;ratioP1;P1;durP2;ratioP2;P2;SDS_P1;SDS_P2;PMS_P1;PMS_P2;Temp;Humidity;BMP_temperature;BMP_pressure;BME280_temperature;BME280_humidity;BME280_pressure;Samples;Min_cycle;Max_cycle;Signal;HPM_P1;HPM_P2
2022/01/11 00:00:31;;;;;;;59.20;21.85;;;0.40;99.90;;;0.15;53.14;99943.53;4950844;28;20129;-76
2022/01/11 00:03:09;;;;;;;172.25;51.03;;;0.40;99.90;;;0.14;52.51;99946.38;4965705;28;20469;-76
2022/01/11 00:05:41;;;;;;;372.77;110.80;;;0.40;99.90;;;0.13;52.10;99950.06;4951556;28;20368;-76
2022/01/11 00:08:09;;;;;;;214.73;63.20;;;0.40;99.90;;;0.13;52.47;99952.72;4967008;28;20183;-75
2022/01/11 00:10:53;;;;;;;225.18;57.65;;;0.40;99.90;;;0.16;51.91;99945.19;4951459;28;20045;-76
2022/01/11 00:13:20;;;;;;;129.80;37.42;;;0.40;99.90;;;0.16;52.19;99955.84;4954573;28;20054;-75
2022/01/11 00:15:47;;;;;;;102.05;31.85;;;0.40;99.90;;;0.15;52.30;99962.22;4973417;28;20154;-75
2022/01/11 00:18:14;;;;;;;44.00;17.90;;;0.40;99.90;;;0.10;52.17;99955.72;4951628;28;20068;-78
2022/01/11 00:20:41;;;;;;;42.83;18.55;;;0.40;99.90;;;0.12;52.25;99962.53;4966926;28;20054;-75
2022/01/11 00:25:36;;;;;;;61.55;23.58;;;0.40;99.90;;;0.14;52.09;99965.03;4950357;28;20046;-75
2022/01/11 00:28:03;;;;;;;116.97;39.50;;;0.40;99.90;;;0.12;51.84;99961.72;4966693;28;20050;-75
2022/01/11 00:30:38;;;;;;;49.47;19.83;;;0.40;99.90;;;0.14;51.72;99970.38;4965290;28;20527;-75
2022/01/11 00:33:08;;;;;;;79.60;25.88;;;0.40;99.90;;;0.09;52.04;99967.41;4970267;28;20046;-76
2022/01/11 00:35:46;;;;;;;45.28;17.98;;;0.40;99.90;;;0.09;51.89;99962.91;4952717;28;20465;-75
2022/01/11 00:38:18;;;;;;;65.15;24.60;;;0.40;99.90;;;0.24;51.78;99962.16;4958424;28;20429;-76
2022/01/11 00:40:56;;;;;;;113.00;31.95;;;0.40;99.90;;;0.18;51.80;99971.69;4958502;28;20042;-76
2022/01/11 00:43:24;;;;;;;74.78;22.42;;;0.50;99.90;;;0.14;52.09;99960.53;4971204;28;20038;-78
2022/01/11 00:45:51;;;;;;;102.47;28.55;;;0.40;99.90;;;0.13;52.13;99966.88;4995188;28;20053;-78
2022/01/11 00:48:17;;;;;;;117.85;28.98;;;0.40;99.90;;;0.19;52.05;99968.84;4955213;28;20117;-75
2022/01/11 00:50:43;;;;;;;104.93;33.58;;;0.40;99.90;;;0.21;52.11;99969.50;4953777;28;20121;-75
2022/01/11 00:53:10;;;;;;;165.02;44.47;;;0.40;99.90;;;0.21;52.36;99969.50;4954696;28;20445;-76
2022/01/11 00:55:35;;;;;;;106.40;31.13;;;0.50;99.90;;;0.22;51.73;99962.31;4954720;28;20053;-75
2022/01/11 00:58:05;;;;;;;165.52;43.50;;;0.50;99.90;;;0.19;52.36;99966.16;4971801;28;20418;-75
2022/01/11 01:00:33;;;;;;;207.52;75.85;;;0.50;99.90;;;0.22;51.98;99963.13;4952539;28;20117;-75
2022/01/11 01:02:59;;;;;;;147.75;45.63;;;0.50;99.90;;;0.20;52.31;99970.50;4952024;28;20058;-75
2022/01/11 01:05:25;;;;;;;122.28;33.55;;;0.50;99.90;;;0.20;52.09;99978.50;4951573;28;20429;-75
2022/01/11 01:07:52;;;;;;;97.55;28.17;;;0.50;99.90;;;0.22;52.55;99972.97;4975724;28;20035;-75
2022/01/11 01:10:29;;;;;;;62.03;21.65;;;0.50;99.90;;;0.25;52.36;99972.63;4954157;28;20404;-75
2022/01/11 01:12:58;;;;;;;98.18;27.75;;;0.50;99.90;;;0.28;52.73;99969.63;4941420;28;20048;-75
2022/01/11 01:15:26;;;;;;;55.72;21.20;;;0.50;99.90;;;0.25;52.58;99974.47;4951558;28;20101;-75
2022/01/11 01:17:52;;;;;;;166.48;44.20;;;0.50;99.90;;;0.21;52.44;99976.66;4972830;28;20717;-75
2022/01/11 01:20:18;;;;;;;226.95;59.20;;;0.50;99.90;;;0.22;53.17;99970.31;4954101;28;20046;-75
2022/01/11 01:22:44;;;;;;;127.38;32.17;;;0.50;99.90;;;0.21;52.35;99974.81;4953132;28;20500;-75
2022/01/11 01:25:10;;;;;;;115.82;35.50;;;0.50;99.90;;;0.15;52.79;99972.88;4970057;28;20073;-75
2022/01/11 01:27:37;;;;;;;43.72;19.13;;;0.50;99.90;;;0.21;52.85;99974.81;4969107;28;20463;-75
2022/01/11 01:30:06;;;;;;;65.45;22.55;;;0.50;99.90;;;0.22;53.09;99986.31;4967682;28;20478;-75
2022/01/11 01:32:32;;;;;;;66.18;23.20;;;0.50;99.90;;;0.21;52.94;99982.84;4953298;28;20054;-77
2022/01/11 01:35:03;;;;;;;72.60;23.58;;;0.50;99.90;;;0.23;52.83;99985.34;4955086;28;20034;-75
2022/01/11 01:37:29;;;;;;;129.20;34.60;;;0.50;99.90;;;0.22;52.82;99989.00;4982624;28;20742;-78
2022/01/11 01:39:55;;;;;;;56.15;19.60;;;0.50;99.90;;;0.20;53.29;99994.53;4974147;28;20065;-75
2022/01/11 01:42:24;;;;;;;77.80;26.27;;;0.50;99.90;;;0.18;52.93;99993.03;4966356;28;20047;-75
2022/01/11 01:44:51;;;;;;;84.13;33.25;;;0.50;99.90;;;0.21;53.22;99993.50;4970645;28;20049;-76
2022/01/11 01:47:17;;;;;;;114.75;34.33;;;0.50;99.90;;;0.19;53.59;99995.50;4966715;28;20391;-75
2022/01/11 01:49:43;;;;;;;63.72;24.15;;;0.50;99.90;;;0.19;53.59;99997.34;4968859;28;20065;-75
2022/01/11 01:52:09;;;;;;;104.38;27.13;;;0.50;99.90;;;0.14;53.38;99989.88;4969997;28;20483;-75
2022/01/11 01:54:35;;;;;;;39.33;17.52;;;0.60;99.90;;;0.16;53.39;99993.22;4956627;28;20143;-75
2022/01/11 01:57:01;;;;;;;39.10;16.90;;;0.60;99.90;;;0.12;53.36;99996.41;4966113;28;20390;-75
2022/01/11 01:59:28;;;;;;;30.67;14.90;;;0.50;99.90;;;0.11;53.38;99994.75;4971810;28;20034;-75
2022/01/11 02:01:53;;;;;;;38.22;16.90;;;0.50;99.90;;;0.12;52.94;99999.88;4951662;28;20680;-77
2022/01/11 02:04:20;;;;;;;33.70;15.18;;;0.50;99.90;;;0.15;52.66;100001.38;4968588;28;20141;-75
2022/01/11 02:06:46;;;;;;;34.95;14.73;;;0.50;99.90;;;0.11;52.91;99997.41;4955621;28;20081;-75
2022/01/11 02:09:12;;;;;;;35.53;14.60;;;0.50;99.90;;;0.09;53.08;100002.91;4966883;28;24772;-75
2022/01/11 02:11:39;;;;;;;36.40;16.63;;;0.50;99.90;;;0.09;53.17;100002.09;4954032;28;20038;-75
2022/01/11 02:14:04;;;;;;;35.08;14.40;;;0.40;99.90;;;0.05;52.88;100009.63;4972508;28;21082;-75
2022/01/11 02:16:31;;;;;;;26.17;14.13;;;0.40;99.90;;;0.08;52.85;100006.59;4972184;28;20047;-75
2022/01/11 02:18:57;;;;;;;24.20;11.40;;;0.40;99.90;;;0.10;52.94;100012.59;4954122;28;20045;-75
2022/01/11 02:21:23;;;;;;;31.70;14.93;;;0.40;99.90;;;0.09;52.89;99997.59;4971344;28;20121;-75
2022/01/11 02:23:52;;;;;;;29.75;14.55;;;0.40;99.90;;;0.08;52.77;100000.44;4973127;28;20052;-75
2022/01/11 02:26:18;;;;;;;28.58;13.00;;;0.40;99.90;;;0.02;53.15;100007.28;4967924;28;20379;-75
2022/01/11 02:28:45;;;;;;;25.92;12.02;;;0.40;99.90;;;0.01;52.63;100010.16;4987667;28;20499;-75
2022/01/11 02:31:14;;;;;;;24.52;12.63;;;0.40;99.90;;;0.02;52.86;100017.97;4968338;28;20117;-75
2022/01/11 02:33:48;;;;;;;26.02;12.63;;;0.40;99.90;;;-0.06;53.06;100005.50;4965111;28;20046;-75
2022/01/11 02:36:25;;;;;;;44.85;17.30;;;0.30;99.90;;;-0.05;53.04;100012.50;4954883;28;20050;-75
2022/01/11 02:38:53;;;;;;;67.07;24.35;;;0.30;99.90;;;0.00;53.07;100004.00;4985648;28;20478;-75
2022/01/11 02:41:19;;;;;;;57.97;20.75;;;0.30;99.90;;;0.01;52.81;100005.63;4971237;28;20800;-75
2022/01/11 02:43:47;;;;;;;40.65;15.73;;;0.30;99.90;;;0.04;52.71;100013.28;4951366;28;20042;-75
2022/01/11 02:46:17;;;;;;;23.38;11.30;;;0.40;99.90;;;0.02;52.98;100014.47;4971692;28;20041;-75
2022/01/11 02:48:43;;;;;;;31.15;14.40;;;0.40;99.90;;;-0.03;53.09;100015.81;4988557;28;20094;-75
2022/01/11 02:51:08;;;;;;;28.13;13.60;;;0.40;99.90;;;-0.02;53.29;100016.66;4968699;28;20125;-75
2022/01/11 02:53:46;;;;;;;24.85;12.48;;;0.40;99.90;;;0.00;52.90;100017.34;4951878;28;20095;-75
2022/01/11 02:56:12;;;;;;;32.35;15.70;;;0.40;99.90;;;0.01;53.07;100021.66;4968229;28;20046;-75
2022/01/11 02:58:38;;;;;;;24.77;13.18;;;0.30;99.90;;;0.01;53.39;100031.50;4968480;28;20449;-75
2022/01/11 03:01:05;;;;;;;28.00;12.27;;;0.40;99.90;;;-0.04;53.72;100029.34;4952239;28;20052;-75
2022/01/11 03:03:30;;;;;;;21.67;11.90;;;0.40;99.90;;;-0.08;53.60;100025.34;4967600;28;20465;-75
2022/01/11 03:05:58;;;;;;;31.40;13.93;;;0.30;99.90;;;-0.10;54.17;100028.22;4972976;28;20576;-75
2022/01/11 03:08:26;;;;;;;25.55;12.90;;;0.30;99.90;;;-0.04;53.75;100040.00;4952873;28;20081;-75
2022/01/11 03:10:52;;;;;;;27.35;13.65;;;0.30;99.90;;;-0.04;53.92;100040.84;4969573;28;20580;-75
2022/01/11 03:13:20;;;;;;;43.55;17.30;;;0.30;99.90;;;-0.06;53.63;100039.34;4952966;28;20042;-75
2022/01/11 03:15:47;;;;;;;24.95;12.85;;;0.30;99.90;;;-0.09;53.49;100037.88;4951358;28;20426;-75
2022/01/11 03:18:14;;;;;;;34.53;15.82;;;0.30;99.90;;;-0.12;52.28;100045.41;4966197;28;20094;-77
2022/01/11 03:20:42;;;;;;;34.38;14.75;;;0.30;99.90;;;-0.13;51.19;100043.72;4951552;28;20117;-78
2022/01/11 03:23:08;;;;;;;36.70;15.95;;;0.30;99.90;;;-0.10;51.42;100043.34;4954438;28;20121;-75
2022/01/11 03:25:34;;;;;;;31.73;15.40;;;0.20;99.90;;;-0.15;50.71;100051.91;4951459;28;20038;-75
2022/01/11 03:28:01;;;;;;;39.35;18.27;;;0.20;99.90;;;-0.15;50.90;100059.06;4968029;28;20137;-75
2022/01/11 03:30:26;;;;;;;42.55;17.35;;;0.20;99.90;;;-0.23;50.93;100060.78;4951106;28;20049;-75
2022/01/11 03:32:52;;;;;;;36.97;16.52;;;0.20;99.90;;;-0.22;51.40;100058.94;4973150;28;20074;-75
2022/01/11 03:35:19;;;;;;;30.55;14.38;;;0.10;99.90;;;-0.19;51.05;100057.75;4951140;28;20137;-75
2022/01/11 03:37:45;;;;;;;28.30;13.95;;;0.10;99.90;;;-0.19;51.06;100055.91;4965172;28;20101;-75
2022/01/11 03:40:14;;;;;;;40.03;16.42;;;0.10;99.90;;;-0.19;51.21;100069.25;4951430;28;20100;-76
2022/01/11 03:42:41;;;;;;;54.40;21.10;;;0.20;99.90;;;-0.25;51.65;100064.63;4965218;28;20046;-75
2022/01/11 03:45:07;;;;;;;35.45;15.70;;;0.20;99.90;;;-0.28;51.96;100079.13;4971452;28;20196;-75
2022/01/11 03:47:34;;;;;;;32.47;14.48;;;0.10;99.90;;;-0.30;52.11;100072.31;4951475;28;20092;-75
2022/01/11 03:50:00;;;;;;;33.08;14.73;;;0.10;99.90;;;-0.32;52.36;100069.78;4951729;28;20545;-75
2022/01/11 03:52:26;;;;;;;28.85;15.23;;;0.10;99.90;;;-0.33;52.79;100085.94;4971655;28;20070;-75
2022/01/11 03:57:18;;;;;;;24.95;12.80;;;0.00;99.90;;;-0.45;53.11;100085.50;4951310;28;20042;-75
2022/01/11 03:59:44;;;;;;;25.65;14.55;;;-0.10;99.90;;;-0.38;52.96;100082.97;4968222;28;20612;-76
2022/01/11 04:02:10;;;;;;;24.10;12.65;;;-0.10;99.90;;;-0.34;52.20;100092.28;4970347;28;20467;-75
2022/01/11 04:04:36;;;;;;;27.55;12.52;;;0.00;99.90;;;-0.30;51.73;100097.13;4985606;28;20557;-75
2022/01/11 04:07:02;;;;;;;22.13;12.52;;;0.00;99.90;;;-0.39;51.40;100099.97;4970282;28;20054;-78
2022/01/11 04:09:28;;;;;;;21.17;11.82;;;-0.10;99.90;;;-0.48;50.89;100096.50;4990052;28;20057;-78
2022/01/11 04:11:55;;;;;;;30.92;15.38;;;-0.10;99.90;;;-0.52;51.49;100101.34;4953749;28;20142;-75
2022/01/11 04:14:22;;;;;;;25.52;13.45;;;-0.20;99.90;;;-0.60;50.98;100104.03;4969963;28;20048;-77
2022/01/11 04:16:48;;;;;;;20.30;10.32;;;-0.20;99.90;;;-0.66;51.62;100110.03;4941735;28;20117;-77
2022/01/11 04:19:14;;;;;;;28.58;13.98;;;-0.30;99.90;;;-0.67;51.08;100105.69;4974045;28;20122;-78
2022/01/11 04:21:40;;;;;;;32.40;15.52;;;-0.20;99.80;;;-0.74;51.24;100102.88;4973478;28;20111;-75
2022/01/11 04:24:08;;;;;;;23.55;12.85;;;-0.30;99.90;;;-0.80;52.10;100102.72;4977558;28;20117;-75
2022/01/11 04:26:34;;;;;;;34.65;16.17;;;-0.40;99.90;;;-0.78;52.05;100108.72;4954825;28;20546;-75
2022/01/11 04:29:00;;;;;;;38.10;17.33;;;-0.40;99.90;;;-0.79;52.08;100107.88;4940172;28;20063;-77
2022/01/11 04:31:26;;;;;;;33.05;15.55;;;-0.40;99.90;;;-0.77;52.10;100105.88;4974700;28;20138;-78
2022/01/11 04:33:52;;;;;;;30.27;14.00;;;-0.40;99.90;;;-0.82;52.29;100104.72;4956050;28;21109;-78
2022/01/11 04:36:18;;;;;;;29.05;14.88;;;-0.40;99.90;;;-0.84;52.70;100107.56;4968149;28;20086;-75
2022/01/11 04:38:44;;;;;;;31.27;16.90;;;-0.50;99.90;;;-0.84;52.78;100110.22;4941927;28;20456;-75
2022/01/11 04:41:10;;;;;;;30.48;15.63;;;-0.50;99.90;;;-0.83;53.39;100121.72;4969043;28;20046;-75
2022/01/11 04:43:36;;;;;;;26.20;13.55;;;-0.50;99.90;;;-0.79;52.91;100115.03;4956350;28;20074;-78
2022/01/11 04:46:02;;;;;;;34.05;14.98;;;-0.50;99.90;;;-0.73;53.22;100120.53;4956394;28;20054;-78
2022/01/11 04:48:32;;;;;;;24.90;12.25;;;-0.40;99.90;;;-0.73;52.29;100123.19;4942013;28;20117;-77
2022/01/11 04:51:02;;;;;;;18.98;11.07;;;-0.40;99.90;;;-0.67;52.04;100124.34;4960013;28;20042;-78
2022/01/11 04:53:28;;;;;;;22.90;11.05;;;-0.30;99.90;;;-0.54;52.01;100127.31;4969459;28;20043;-75
2022/01/11 04:55:55;;;;;;;17.92;10.43;;;-0.20;99.90;;;-0.57;52.05;100129.50;4955538;28;20192;-78
2022/01/11 04:58:21;;;;;;;19.40;10.30;;;-0.20;99.90;;;-0.50;52.15;100133.16;4975018;28;20121;-77
2022/01/11 05:00:46;;;;;;;22.63;12.05;;;-0.20;99.90;;;-0.52;52.39;100128.00;4975298;28;20058;-78
2022/01/11 05:03:13;;;;;;;22.83;11.60;;;-0.20;99.90;;;-0.52;52.52;100125.31;4955573;28;20493;-78
2022/01/11 05:05:39;;;;;;;25.45;13.50;;;-0.20;99.90;;;-0.54;52.47;100134.50;4978712;28;20034;-78
2022/01/11 05:08:05;;;;;;;21.52;11.70;;;-0.20;99.90;;;-0.55;52.77;100133.66;4974448;28;20046;-75
2022/01/11 05:10:31;;;;;;;23.90;11.57;;;-0.20;99.90;;;-0.43;52.77;100134.16;4977571;28;20565;-78
2022/01/11 05:12:58;;;;;;;20.50;11.68;;;-0.10;99.90;;;-0.39;52.75;100126.63;4957697;28;20054;-78
2022/01/11 05:15:28;;;;;;;16.05;9.48;;;-0.10;99.90;;;-0.30;52.18;100128.28;4969371;28;20153;-75
2022/01/11 05:17:54;;;;;;;20.25;12.13;;;0.00;99.90;;;-0.35;52.22;100134.13;4973680;28;20549;-77
2022/01/11 05:20:20;;;;;;;26.23;10.57;;;-0.10;99.90;;;-0.48;52.31;100139.16;4976357;28;20046;-75
2022/01/11 05:22:47;;;;;;;19.35;9.63;;;0.00;99.90;;;-0.56;53.03;100145.34;4972755;28;20053;-75
2022/01/11 05:25:15;;;;;;;20.27;11.02;;;-0.10;99.90;;;-0.56;53.00;100148.00;4970593;28;20480;-77
2022/01/11 05:27:41;;;;;;;22.20;10.55;;;-0.20;99.90;;;-0.56;53.44;100150.66;4941897;28;20074;-78
2022/01/11 05:30:08;;;;;;;20.92;10.32;;;-0.20;99.90;;;-0.50;53.57;100152.66;4972624;28;20503;-78
2022/01/11 05:32:35;;;;;;;17.52;9.93;;;-0.10;99.90;;;-0.43;53.39;100158.16;4957871;28;20549;-77
2022/01/11 05:35:06;;;;;;;22.77;10.68;;;-0.10;99.90;;;-0.43;53.29;100158.16;4973098;28;20410;-78
2022/01/11 05:37:32;;;;;;;18.47;9.67;;;-0.10;99.90;;;-0.38;53.21;100161.13;4957454;28;20383;-77
2022/01/11 05:39:59;;;;;;;18.17;9.63;;;-0.10;99.90;;;-0.46;53.33;100166.47;4974705;28;20058;-78
2022/01/11 05:42:26;;;;;;;21.95;9.27;;;0.00;99.90;;;-0.34;53.01;100169.63;4958427;28;20092;-78
2022/01/11 05:44:52;;;;;;;17.67;10.68;;;-0.10;99.90;;;-0.36;53.27;100175.09;4954544;28;20359;-77
2022/01/11 05:47:18;;;;;;;21.30;10.13;;;0.00;99.90;;;-0.35;53.35;100168.78;4955794;28;20092;-75
2022/01/11 05:49:47;;;;;;;21.42;10.27;;;0.00;99.90;;;-0.27;53.30;100182.09;4988099;28;20074;-75
2022/01/11 05:52:13;;;;;;;22.90;10.90;;;0.00;99.90;;;-0.15;53.04;100179.06;4958614;28;20038;-75
2022/01/11 05:54:39;;;;;;;15.70;9.02;;;0.10;99.90;;;-0.11;53.00;100167.91;4986839;28;20561;-77
2022/01/11 05:57:05;;;;;;;20.70;9.80;;;0.10;99.90;;;-0.16;53.29;100162.25;4950899;28;20060;-77
2022/01/11 05:59:31;;;;;;;21.17;11.85;;;0.20;99.90;;;-0.27;53.60;100179.44;4957666;28;20042;-77
2022/01/11 06:01:57;;;;;;;15.95;9.48;;;0.10;99.90;;;-0.32;53.59;100179.13;4956179;28;20116;-77
2022/01/11 06:04:24;;;;;;;16.85;9.10;;;0.20;99.90;;;-0.35;53.85;100175.97;4971842;28;20049;-77
2022/01/11 06:06:51;;;;;;;18.08;9.90;;;0.10;99.90;;;-0.31;53.81;100188.75;4955111;28;20054;-77
2022/01/11 06:09:17;;;;;;;22.58;11.40;;;0.10;99.90;;;-0.29;54.38;100193.94;4955081;28;20061;-77
2022/01/11 06:11:43;;;;;;;21.23;11.45;;;0.10;99.90;;;-0.33;54.14;100197.94;4954819;28;20093;-77
2022/01/11 06:14:09;;;;;;;23.05;9.50;;;0.10;99.90;;;-0.33;54.22;100201.47;4968560;28;20038;-78
2022/01/11 06:16:36;;;;;;;22.45;12.73;;;0.10;99.90;;;-0.29;54.37;100205.44;4954690;28;20358;-77
2022/01/11 06:19:05;;;;;;;21.25;10.55;;;0.10;99.90;;;-0.30;54.56;100217.13;4956413;28;20050;-77
2022/01/11 06:21:31;;;;;;;21.58;11.82;;;0.10;99.90;;;-0.34;54.51;100217.59;4955876;28;20074;-77
2022/01/11 06:23:57;;;;;;;19.73;11.98;;;0.10;99.90;;;-0.42;54.31;100229.13;4953877;28;20034;-77
2022/01/11 06:26:23;;;;;;;25.30;12.05;;;0.10;99.90;;;-0.38;54.77;100229.59;4964771;28;20066;-77
2022/01/11 06:28:49;;;;;;;25.70;13.02;;;0.10;99.90;;;-0.35;54.79;100224.78;4957257;28;20502;-77
2022/01/11 06:31:15;;;;;;;21.83;11.32;;;0.00;99.90;;;-0.33;54.89;100228.13;4955917;28;20145;-77
2022/01/11 06:33:41;;;;;;;22.52;12.45;;;0.10;99.90;;;-0.33;54.95;100230.78;4977521;28;20049;-80
2022/01/11 06:36:10;;;;;;;26.25;12.27;;;0.10;99.90;;;-0.35;54.94;100229.28;4968911;28;20417;-78
2022/01/11 06:38:40;;;;;;;27.33;13.45;;;0.10;99.90;;;-0.33;54.54;100233.44;4975800;28;20476;-77
2022/01/11 06:41:06;;;;;;;27.73;11.75;;;0.10;99.90;;;-0.33;55.12;100245.94;4987687;28;20517;-78
2022/01/11 06:43:32;;;;;;;25.80;13.63;;;0.10;99.90;;;-0.36;55.21;100252.44;4955315;28;20057;-80
2022/01/11 06:45:58;;;;;;;27.70;13.27;;;0.10;99.90;;;-0.35;55.20;100254.13;4971335;28;20034;-80
2022/01/11 06:48:24;;;;;;;31.17;14.07;;;0.10;99.90;;;-0.32;54.82;100251.09;4986825;28;20109;-80
2022/01/11 06:50:50;;;;;;;22.25;13.75;;;0.10;99.90;;;-0.39;54.98;100259.94;4973363;28;20498;-78
2022/01/11 06:53:16;;;;;;;32.33;14.90;;;0.10;99.90;;;-0.44;55.49;100257.78;4957299;28;20089;-78
2022/01/11 06:55:42;;;;;;;31.95;14.80;;;0.00;99.90;;;-0.44;55.39;100268.44;4960663;28;20046;-78
2022/01/11 06:58:08;;;;;;;37.60;18.45;;;0.00;99.90;;;-0.39;55.52;100263.44;4955039;28;20340;-79
2022/01/11 07:00:34;;;;;;;37.55;17.00;;;0.00;99.90;;;-0.31;55.07;100274.09;4968516;28;20546;-78
2022/01/11 07:03:00;;;;;;;40.13;18.85;;;0.10;99.90;;;-0.26;55.42;100273.59;4970304;28;20657;-78
2022/01/11 07:05:26;;;;;;;46.97;18.00;;;0.10;99.90;;;-0.24;54.85;100276.94;4967335;28;20070;-78
2022/01/11 07:07:52;;;;;;;42.83;18.30;;;0.10;99.90;;;-0.25;55.50;100272.63;4971263;28;20034;-77
2022/01/11 07:10:19;;;;;;;40.22;18.50;;;0.20;99.90;;;-0.17;54.98;100269.94;4952229;28;20065;-78
2022/01/11 07:12:45;;;;;;;39.95;16.45;;;0.20;99.90;;;-0.18;55.42;100284.25;4969650;28;20145;-78
2022/01/11 07:15:11;;;;;;;36.90;15.68;;;0.20;99.90;;;-0.18;55.16;100288.75;4952988;28;20473;-77
2022/01/11 07:17:37;;;;;;;57.22;25.10;;;0.30;99.90;;;-0.14;54.95;100290.94;4952709;28;20061;-78
2022/01/11 07:20:04;;;;;;;118.10;52.22;;;0.30;99.90;;;-0.04;55.01;100301.44;4969949;28;20097;-78
2022/01/11 07:22:31;;;;;;;86.85;39.13;;;0.30;99.90;;;0.02;54.75;100292.75;4966968;28;20537;-78
2022/01/11 07:24:57;;;;;;;58.10;25.17;;;0.40;99.90;;;0.12;54.83;100290.72;4939277;28;20065;-78
2022/01/11 07:27:23;;;;;;;80.53;32.80;;;0.50;99.90;;;0.22;54.46;100302.06;4968251;28;20125;-78
2022/01/11 07:29:49;;;;;;;70.82;33.63;;;0.60;99.90;;;0.21;54.64;100305.72;4951567;28;20369;-78
2022/01/11 07:32:15;;;;;;;72.10;29.25;;;0.60;99.90;;;0.27;54.28;100311.41;4966723;28;20564;-78
2022/01/11 07:34:41;;;;;;;61.42;30.40;;;0.70;99.90;;;0.21;54.40;100308.41;4965823;28;20125;-78
2022/01/11 07:37:07;;;;;;;57.10;24.80;;;0.70;99.90;;;0.29;54.55;100304.06;4954452;28;20569;-77
2022/01/11 07:39:33;;;;;;;36.45;21.48;;;0.70;99.90;;;0.34;54.06;100309.72;4968386;28;20142;-78
2022/01/11 07:41:59;;;;;;;37.45;21.02;;;0.80;99.90;;;0.35;53.93;100312.19;4975190;28;20394;-78
2022/01/11 07:44:25;;;;;;;36.28;17.05;;;0.80;99.90;;;0.46;53.81;100304.84;4971961;28;20047;-78
2022/01/11 07:46:52;;;;;;;36.97;18.08;;;0.90;99.90;;;0.52;53.82;100313.00;4970232;28;20044;-78
2022/01/11 07:49:19;;;;;;;62.65;30.48;;;1.00;99.90;;;0.50;53.67;100317.69;4968088;28;20096;-78
2022/01/11 07:51:47;;;;;;;50.50;23.73;;;1.10;99.90;;;0.57;53.04;100321.34;4955792;28;20049;-78
2022/01/11 07:54:13;;;;;;;32.15;17.58;;;1.10;99.90;;;0.51;53.71;100322.03;4968772;28;20422;-78
2022/01/11 07:56:39;;;;;;;40.70;22.75;;;1.10;99.90;;;0.57;53.37;100325.84;4950347;28;20043;-78
2022/01/11 07:59:05;;;;;;;48.65;29.63;;;1.10;99.90;;;0.53;53.31;100319.16;4955265;28;20049;-78
2022/01/11 08:01:31;;;;;;;42.97;23.10;;;1.10;99.90;;;0.60;53.13;100314.81;4954153;28;20050;-80
2022/01/11 08:03:59;;;;;;;37.83;19.40;;;1.10;99.90;;;0.64;53.47;100322.31;4967968;28;20053;-78
2022/01/11 08:06:27;;;;;;;39.58;18.88;;;1.20;99.90;;;0.69;53.30;100321.81;4950271;28;20455;-77
2022/01/11 08:08:52;;;;;;;30.08;15.75;;;1.20;99.90;;;0.63;53.11;100320.63;4953017;28;20636;-78
2022/01/11 08:11:18;;;;;;;27.10;16.60;;;1.30;99.90;;;0.54;53.39;100329.69;4947294;28;20093;-77
2022/01/11 08:13:45;;;;;;;34.92;16.50;;;1.20;99.90;;;0.54;53.25;100327.03;4950292;28;20502;-78
2022/01/11 08:16:11;;;;;;;32.58;17.73;;;1.10;99.90;;;0.54;53.54;100332.38;4940342;28;20077;-78
2022/01/11 08:18:37;;;;;;;35.55;17.77;;;1.10;99.90;;;0.51;53.66;100323.84;4969152;28;20438;-78
2022/01/11 08:21:03;;;;;;;41.58;19.10;;;1.10;99.90;;;0.48;54.10;100322.34;4972224;28;20119;-78
2022/01/11 08:23:29;;;;;;;36.55;18.50;;;1.10;99.90;;;0.37;53.84;100328.06;4967744;28;20490;-78
2022/01/11 08:25:55;;;;;;;34.45;17.90;;;1.00;99.90;;;0.14;54.18;100331.44;4983467;28;20065;-78
2022/01/11 08:28:21;;;;;;;34.38;17.90;;;0.80;99.90;;;0.02;54.84;100330.09;4952020;28;20046;-78
2022/01/11 08:30:47;;;;;;;41.08;20.52;;;0.70;99.90;;;-0.14;54.92;100338.13;4963876;28;20046;-78
2022/01/11 08:33:13;;;;;;;42.75;20.00;;;0.50;99.90;;;-0.26;55.30;100341.09;4969597;28;20042;-78
2022/01/11 08:35:39;;;;;;;36.45;18.50;;;0.40;99.90;;;-0.32;55.77;100339.09;4937198;28;20081;-78
2022/01/11 08:38:05;;;;;;;40.22;22.67;;;0.30;99.90;;;-0.31;56.03;100338.09;4964506;28;20046;-78
2022/01/11 08:40:31;;;;;;;45.70;24.17;;;0.20;99.90;;;-0.31;56.39;100335.41;4953702;28;20058;-78
2022/01/11 08:42:58;;;;;;;50.83;25.60;;;0.20;99.90;;;-0.28;56.19;100343.13;4937455;28;20072;-78
2022/01/11 08:45:26;;;;;;;56.45;27.88;;;0.20;99.90;;;-0.28;56.47;100343.13;4936347;28;20545;-78
2022/01/11 08:47:52;;;;;;;59.75;27.42;;;0.10;99.90;;;-0.17;55.94;100346.44;4951786;28;20112;-77
2022/01/11 08:50:18;;;;;;;58.30;27.40;;;0.20;99.90;;;-0.02;56.04;100345.63;4935895;28;20042;-78
2022/01/11 08:52:45;;;;;;;61.35;26.98;;;0.30;99.90;;;0.05;55.86;100347.59;4972481;28;20145;-77
2022/01/11 08:55:11;;;;;;;58.63;28.70;;;0.40;99.90;;;0.15;55.62;100353.59;4975973;28;21334;-78
2022/01/11 08:57:38;;;;;;;56.50;28.92;;;0.50;99.90;;;0.23;55.30;100350.94;4969541;28;20077;-78
2022/01/11 09:00:09;;;;;;;45.83;24.23;;;0.60;99.90;;;0.33;55.66;100345.41;4953896;28;20074;-78
2022/01/11 09:02:37;;;;;;;53.95;26.15;;;0.80;99.90;;;0.39;55.30;100339.41;4969271;28;20070;-78
2022/01/11 09:05:03;;;;;;;53.22;27.70;;;0.80;99.90;;;0.48;55.20;100343.72;4953427;28;20053;-78
2022/01/11 09:07:32;;;;;;;49.50;25.15;;;0.90;99.90;;;0.57;54.40;100344.53;4993261;28;20092;-79
2022/01/11 09:09:58;;;;;;;54.25;24.25;;;1.00;99.90;;;0.49;54.50;100349.91;4969308;28;20039;-78
2022/01/11 09:12:24;;;;;;;49.78;22.05;;;0.90;99.90;;;0.39;54.11;100350.91;4976656;28;20074;-78
2022/01/11 09:14:50;;;;;;;49.50;24.00;;;0.80;99.90;;;0.40;54.65;100349.06;4976287;28;20062;-79
2022/01/11 09:17:17;;;;;;;46.67;21.70;;;0.80;99.90;;;0.40;54.82;100349.06;4951645;28;20048;-80
2022/01/11 09:19:43;;;;;;;49.78;24.15;;;0.80;99.90;;;0.40;54.56;100341.88;4970452;28;20124;-80
2022/01/11 09:22:09;;;;;;;50.20;24.73;;;0.80;99.90;;;0.43;55.34;100354.06;4968351;28;20125;-79
2022/01/11 09:24:35;;;;;;;75.50;33.80;;;0.80;99.90;;;0.43;54.85;100346.06;4967998;28;20038;-80
2022/01/11 09:27:04;;;;;;;47.83;24.30;;;0.80;99.90;;;0.42;55.04;100350.56;4956539;28;20405;-81
2022/01/11 09:29:31;;;;;;;43.67;22.77;;;0.80;99.90;;;0.53;55.17;100352.03;4967442;28;20424;-81
2022/01/11 09:31:59;;;;;;;46.78;21.63;;;0.90;99.90;;;0.65;54.59;100344.50;4955318;28;20042;-82
2022/01/11 09:34:25;;;;;;;38.35;20.13;;;0.90;99.90;;;0.71;54.97;100343.81;4967640;28;20085;-82
2022/01/11 09:36:51;;;;;;;40.78;21.90;;;1.10;99.90;;;0.76;54.81;100346.81;4952107;28;20050;-82
2022/01/11 09:39:17;;;;;;;44.38;21.08;;;1.10;99.90;;;0.79;54.79;100345.63;4937496;28;20050;-82
2022/01/11 09:41:43;;;;;;;47.70;21.00;;;1.20;99.90;;;0.81;54.51;100346.28;4974724;28;20073;-82
2022/01/11 09:44:09;;;;;;;51.13;22.40;;;1.20;99.90;;;0.85;53.94;100345.78;4969345;28;20050;-83
2022/01/11 09:46:36;;;;;;;42.35;20.90;;;1.30;99.90;;;0.87;54.12;100334.94;4953213;28;20124;-83
2022/01/11 09:49:02;;;;;;;55.63;23.05;;;1.30;99.90;;;0.92;53.91;100337.91;4953264;28;20045;-83
2022/01/11 09:51:34;;;;;;;41.47;19.58;;;1.30;99.90;;;0.92;53.93;100340.59;4953415;28;20553;-83
2022/01/11 09:54:04;;;;;;;45.90;21.38;;;1.40;99.90;;;0.96;53.63;100335.72;4936955;28;20073;-83
2022/01/11 09:56:31;;;;;;;46.58;31.48;;;1.30;99.90;;;0.95;53.76;100342.09;4969212;28;20096;-83
2022/01/11 09:58:57;;;;;;;39.53;19.48;;;1.40;99.90;;;0.95;53.33;100342.09;4967323;28;20727;-82
2022/01/11 10:01:23;;;;;;;35.10;19.50;;;1.40;99.90;;;0.97;52.69;100329.38;4981074;28;20069;-82
2022/01/11 10:04:13;;;;;;;38.05;18.90;;;1.40;99.90;;;0.91;52.83;100333.56;4933706;28;20121;-82
2022/01/11 10:06:42;;;;;;;36.30;17.98;;;1.40;99.90;;;0.99;52.40;100338.91;4968570;28;20137;-82
2022/01/11 10:09:21;;;;;;;48.05;30.60;;;1.40;99.90;;;1.15;52.29;100347.84;4953766;28;20046;-82
2022/01/11 10:11:56;;;;;;;39.40;20.15;;;1.50;99.90;;;1.37;51.89;100346.22;4954796;28;20053;-83
2022/01/11 10:14:48;;;;;;;43.72;24.13;;;1.70;99.90;;;1.62;51.74;100349.56;4963291;28;20501;-83